Terminal Aerodrome Forecast
Issued by NWS

Home | Current Version | Previous Version | Text Only | Print | Product List | Glossary Off
Versions: 1 2 3 4 5 6 7 8 9 10 11 12 13 14 15 16 17 18 19 20 21 22 23 24 25 26 27 28 29

662
FTUS43 KLOT 281500 AAA
TAFMDW
TAF AMD
KMDW 281500Z 2815/2912 19015G24KT P6SM VCSH SCT045 BKN070
      TEMPO 2816/2818 5SM -SHRA BKN045
     FM281900 19019G30KT P6SM SCT045 BKN120
     FM290200 21017G25KT P6SM VCTS BKN060CB
      TEMPO 2903/2906 2SM TSRA OVC050CB
     FM290600 22013G22KT P6SM OVC090=

USA.gov is the U.S. government's official web portal to all federal, state and local government web resources and services.